PTSA/KSA METAR and TAF weather

Enter ICAO airport designator
Station Type Date Time Source
PTSA METAR 2021/07/28 18:50 UTC NOAA

PTSA 281850Z 11007KT 10SM BKN017 BKN130 BKN300 26/24 A2981 RMK FIRST


Station Type Date Time Source
PTSA Decoded METAR 2021/07/28 18:50 UTC NOAA

Kosrae Island, Kosrae Airport, Micronesia, Federated States of (PTSA) 05-21N 162-57E
Jul 28, 2021 - 02:50 PM EDT / 2021.07.28 1850 UTC
Wind: from the ESE (110 degrees) at 8 MPH (7 KT):0
Visibility: 10 mile(s):0
Sky conditions: mostly cloudy
Temperature: 78 F (26 C)
Dew Point: 75 F (24 C)
Relative Humidity: 88%
Pressure (altimeter): 29.81 in. Hg (1009 hPa)
ob: PTSA 281850Z 11007KT 10SM BKN017 BKN130 BKN300 26/24 A2981 RMK FIRST
cycle: 19

Station Type Date Time Source
PTSA TAF 2021/07/27 22:14 UTC NOAA

TAF
AMD PTSA 272205Z 2722/2818 12007KT P6SM VCSH SCT017 BKN130
TEMPO 2722/2802 3SM SHRA BKN015 OVC130

Example: see airport list